Time;durP1;ratioP1;P1;durP2;ratioP2;P2;SDS_P1;SDS_P2;PMS_P1;PMS_P2;Temp;Humidity;BMP_temperature;BMP_pressure;BME280_temperature;BME280_humidity;BME280_pressure;Samples;Min_cycle;Max_cycle;Signal;HPM_P1;HPM_P2
2022/11/22 00:00:53;;;;;;;;;3.00;3.00;;;;;6.22;77.06;98659.34;5056875;27;45298;-69
2022/11/22 00:03:18;;;;;;;;;2.00;2.00;;;;;6.19;76.34;98661.28;5070208;27;45432;-69
2022/11/22 00:05:43;;;;;;;;;3.25;3.25;;;;;6.11;76.30;98651.25;5054815;28;45526;-68
2022/11/22 00:08:09;;;;;;;;;3.00;3.00;;;;;6.17;76.78;98660.53;5064747;28;45513;-68
2022/11/22 00:10:34;;;;;;;;;3.00;3.00;;;;;6.11;76.75;98652.09;5059526;27;45326;-70
2022/11/22 00:13:00;;;;;;;;;3.00;2.75;;;;;6.14;77.21;98667.59;5054107;28;45864;-70
2022/11/22 00:15:26;;;;;;;;;2.00;2.00;;;;;6.12;77.22;98669.44;5054187;28;45352;-69
2022/11/22 00:17:51;;;;;;;;;2.00;2.00;;;;;6.09;76.49;98668.75;5053355;28;45663;-70
2022/11/22 00:20:16;;;;;;;;;3.00;2.00;;;;;6.03;76.72;98663.84;5054266;28;45508;-70
2022/11/22 00:22:42;;;;;;;;;1.50;1.50;;;;;6.06;77.25;98668.91;5069500;28;45462;-71
2022/11/22 00:25:08;;;;;;;;;1.00;1.00;;;;;6.03;76.90;98662.09;5074598;28;45469;-69
2022/11/22 00:27:34;;;;;;;;;1.75;1.75;;;;;6.03;76.41;98675.16;5074038;28;46048;-69
2022/11/22 00:29:59;;;;;;;;;3.00;3.00;;;;;5.81;77.37;98638.84;5060509;28;45418;-70
2022/11/22 00:32:24;;;;;;;;;2.00;2.00;;;;;5.93;77.31;98669.53;5053849;28;45466;-72
2022/11/22 00:34:50;;;;;;;;;2.00;2.00;;;;;5.99;77.83;98657.94;5054047;28;45343;-70
2022/11/22 00:37:15;;;;;;;;;3.00;3.00;;;;;6.01;77.72;98657.88;5052553;28;46881;-71
2022/11/22 00:39:41;;;;;;;;;2.25;2.25;;;;;5.98;77.17;98649.25;5054171;28;45508;-69
2022/11/22 00:42:06;;;;;;;;;3.25;3.25;;;;;6.01;77.24;98665.69;5052745;28;45439;-70
2022/11/22 00:44:32;;;;;;;;;2.50;2.25;;;;;5.95;78.18;98651.19;5054044;28;45454;-72
2022/11/22 00:46:57;;;;;;;;;2.50;2.50;;;;;5.91;77.77;98650.50;5053732;28;46491;-71
2022/11/22 00:49:22;;;;;;;;;2.75;2.75;;;;;5.95;77.20;98656.41;5053485;28;45333;-70
2022/11/22 00:51:48;;;;;;;;;1.75;1.75;;;;;5.90;77.32;98658.41;5061527;28;45504;-70
2022/11/22 00:54:13;;;;;;;;;2.50;2.00;;;;;5.89;77.63;98660.16;5072707;27;45639;-69
2022/11/22 00:56:38;;;;;;;;;1.00;1.00;;;;;5.90;77.57;98661.03;5074871;28;45688;-70
2022/11/22 00:59:04;;;;;;;;;3.00;3.00;;;;;5.92;77.65;98667.84;5075947;28;51374;-72
2022/11/22 01:01:29;;;;;;;;;2.00;2.00;;;;;5.93;78.09;98668.69;5077971;27;45392;-69
2022/11/22 01:03:54;;;;;;;;;2.00;2.00;;;;;5.92;78.32;98669.63;5078068;28;45358;-70
2022/11/22 01:06:20;;;;;;;;;2.00;2.00;;;;;5.91;77.33;98666.16;5077706;27;45476;-70
2022/11/22 01:08:45;;;;;;;;;5.00;3.50;;;;;5.88;77.88;98661.09;5077590;27;45336;-70
2022/11/22 01:11:12;;;;;;;;;3.00;3.00;;;;;5.91;78.26;98666.16;5078539;27;45354;-70
2022/11/22 01:13:37;;;;;;;;;2.00;2.00;;;;;5.88;78.19;98657.66;5078692;27;45240;-69
2022/11/22 01:16:06;;;;;;;;;1.25;1.25;;;;;5.88;78.29;98662.88;5077636;27;45283;-71
2022/11/22 01:18:32;;;;;;;;;1.00;1.00;;;;;5.85;78.15;98650.81;5076497;27;45413;-69
2022/11/22 01:20:57;;;;;;;;;2.25;2.25;;;;;5.85;77.94;98635.16;5077488;27;45485;-70
2022/11/22 01:23:23;;;;;;;;;2.50;2.50;;;;;5.82;77.80;98646.56;5075848;28;45581;-69
2022/11/22 01:25:48;;;;;;;;;1.50;1.50;;;;;5.80;77.53;98642.38;5077144;28;45462;-69
2022/11/22 01:28:14;;;;;;;;;2.00;2.00;;;;;5.72;77.14;98634.94;5077016;27;45492;-69
2022/11/22 01:30:40;;;;;;;;;2.00;2.00;;;;;5.73;77.77;98631.41;5076600;28;45445;-70
2022/11/22 01:33:06;;;;;;;;;1.00;1.00;;;;;5.78;77.49;98642.44;5077570;28;45513;-69
2022/11/22 01:35:31;;;;;;;;;3.00;3.00;;;;;5.78;77.95;98642.44;5077257;27;46515;-69
2022/11/22 01:37:56;;;;;;;;;1.75;1.75;;;;;5.76;77.60;98622.59;5077325;27;45347;-69
2022/11/22 01:40:22;;;;;;;;;2.00;2.00;;;;;5.80;77.79;98630.16;5077567;27;45237;-70
2022/11/22 01:42:49;;;;;;;;;2.25;2.25;;;;;5.83;77.76;98630.03;5077677;27;45234;-70
2022/11/22 01:45:29;;;;;;;;;1.75;1.75;;;;;5.85;77.89;98628.19;5077645;27;46163;-69
2022/11/22 01:48:04;;;;;;;;;2.00;2.00;;;;;5.81;78.18;98623.19;5077324;28;45434;-70
2022/11/22 01:50:34;;;;;;;;;3.00;3.00;;;;;5.85;77.21;98630.78;5076382;28;45361;-69
2022/11/22 01:53:05;;;;;;;;;2.00;2.00;;;;;5.87;77.59;98625.47;5077337;27;45226;-69
2022/11/22 01:55:31;;;;;;;;;3.75;2.25;;;;;5.90;77.64;98632.31;5077152;28;45407;-69
2022/11/22 01:57:57;;;;;;;;;1.75;1.75;;;;;5.91;77.98;98627.00;5075368;28;45367;-70
2022/11/22 02:00:22;;;;;;;;;1.75;1.75;;;;;5.95;78.29;98636.34;5077193;27;45333;-69
2022/11/22 02:02:56;;;;;;;;;0.50;0.50;;;;;5.96;77.97;98632.81;5077010;27;45438;-69
2022/11/22 02:05:27;;;;;;;;;2.50;1.75;;;;;6.00;78.27;98625.69;5076748;28;45573;-69
2022/11/22 02:08:00;;;;;;;;;1.25;1.25;;;;;5.98;77.60;98620.53;5076752;28;45334;-68
2022/11/22 02:10:28;;;;;;;;;2.50;2.50;;;;;6.00;78.17;98623.09;5076917;27;45424;-69
2022/11/22 02:12:57;;;;;;;;;3.00;3.00;;;;;6.00;78.07;98620.47;5076970;27;45327;-70
2022/11/22 02:15:23;;;;;;;;;1.00;1.00;;;;;6.03;77.62;98622.09;5075220;28;47292;-69
2022/11/22 02:17:48;;;;;;;;;1.00;1.00;;;;;6.01;78.84;98622.19;5076479;27;47756;-69
2022/11/22 02:20:16;;;;;;;;;2.00;2.00;;;;;6.03;78.04;98617.72;5077237;27;45253;-69
2022/11/22 02:23:05;;;;;;;;;1.75;1.75;;;;;6.05;78.45;98635.91;5077191;27;45437;-69
2022/11/22 02:25:35;;;;;;;;;1.00;1.00;;;;;6.01;78.32;98616.13;5076471;28;45404;-69
2022/11/22 02:28:01;;;;;;;;;2.00;1.00;;;;;6.04;78.76;98618.56;5076454;27;45256;-70
2022/11/22 02:30:26;;;;;;;;;1.00;1.00;;;;;6.04;78.44;98622.03;5076572;27;45346;-70
2022/11/22 02:32:52;;;;;;;;;1.75;1.00;;;;;6.04;78.36;98623.78;5076700;27;45330;-69
2022/11/22 02:35:18;;;;;;;;;1.75;1.75;;;;;6.03;78.36;98622.09;5076413;27;45336;-68
2022/11/22 02:37:44;;;;;;;;;1.75;1.75;;;;;5.99;78.58;98611.78;5076750;27;45425;-70
2022/11/22 02:40:13;;;;;;;;;1.75;1.75;;;;;5.98;78.18;98612.72;5076470;27;45394;-68
2022/11/22 02:42:44;;;;;;;;;1.75;1.75;;;;;5.99;78.72;98624.00;5076816;27;45445;-68
2022/11/22 02:45:10;;;;;;;;;3.50;3.50;;;;;5.97;78.45;98616.25;5076292;27;45290;-69
2022/11/22 02:47:35;;;;;;;;;2.50;2.50;;;;;5.89;78.48;98604.53;5076186;27;45413;-70
2022/11/22 02:50:00;;;;;;;;;1.00;1.00;;;;;5.96;78.47;98622.38;5076056;27;45436;-71
2022/11/22 02:52:26;;;;;;;;;1.00;1.00;;;;;5.97;79.17;98613.63;5076152;27;45630;-70
2022/11/22 02:54:51;;;;;;;;;2.00;1.25;;;;;6.01;78.99;98613.50;5074445;28;51679;-70
2022/11/22 02:57:16;;;;;;;;;0.75;0.75;;;;;5.99;78.79;98598.75;5074243;27;45482;-69
2022/11/22 02:59:42;;;;;;;;;2.00;2.00;;;;;6.05;78.94;98596.75;5073721;28;45429;-69
2022/11/22 03:02:07;;;;;;;;;1.00;1.00;;;;;6.10;78.50;98599.97;5076311;27;45621;-68
2022/11/22 03:04:32;;;;;;;;;2.00;2.00;;;;;6.07;78.78;98593.16;5075606;27;46590;-69
2022/11/22 03:06:58;;;;;;;;;0.75;0.75;;;;;6.12;78.49;98587.66;5075822;27;45504;-69
2022/11/22 03:09:25;;;;;;;;;2.25;1.00;;;;;6.12;79.59;98596.34;5076307;27;45351;-71
2022/11/22 03:11:51;;;;;;;;;1.00;1.00;;;;;6.10;78.42;98581.69;5076387;27;45413;-69
2022/11/22 03:14:16;;;;;;;;;1.00;1.00;;;;;6.16;78.78;98594.41;5074678;27;46422;-70
2022/11/22 03:16:43;;;;;;;;;3.00;3.00;;;;;6.15;78.34;98574.44;5076038;27;45409;-70
2022/11/22 03:19:09;;;;;;;;;1.00;1.00;;;;;6.19;79.13;98578.56;5074996;28;45290;-70
2022/11/22 03:21:34;;;;;;;;;1.00;1.00;;;;;6.19;78.54;98565.53;5075714;27;45285;-71
2022/11/22 03:24:00;;;;;;;;;1.00;1.00;;;;;6.23;78.65;98561.00;5075365;27;46485;-69
2022/11/22 03:26:25;;;;;;;;;1.00;1.00;;;;;6.28;79.08;98564.19;5075390;27;45263;-69
2022/11/22 03:28:50;;;;;;;;;1.00;1.00;;;;;6.29;78.30;98578.94;5075605;27;45317;-68
2022/11/22 03:31:16;;;;;;;;;1.50;1.50;;;;;6.28;79.14;98570.25;5076209;28;45533;-70
2022/11/22 03:33:41;;;;;;;;;1.25;1.25;;;;;6.28;78.59;98570.25;5075236;27;45505;-69
2022/11/22 03:36:06;;;;;;;;;1.00;1.00;;;;;6.33;78.29;98567.38;5075172;27;45323;-70
2022/11/22 03:38:33;;;;;;;;;1.00;1.00;;;;;6.33;78.63;98566.53;5075544;27;45279;-69
2022/11/22 03:40:59;;;;;;;;;1.25;1.25;;;;;6.32;79.19;98563.09;5075801;27;45347;-70
2022/11/22 03:43:24;;;;;;;;;1.00;1.00;;;;;6.35;78.76;98560.31;5075015;27;46030;-70
2022/11/22 03:45:49;;;;;;;;;1.25;1.25;;;;;6.38;79.56;98581.03;5075392;27;45297;-69
2022/11/22 03:48:15;;;;;;;;;1.00;1.00;;;;;6.38;78.95;98567.16;5073757;28;45278;-68
2022/11/22 03:50:40;;;;;;;;;2.00;2.00;;;;;6.40;79.24;98567.91;5075693;27;45944;-69
2022/11/22 03:53:05;;;;;;;;;1.00;1.00;;;;;6.39;78.64;98555.78;5074808;27;45716;-69
2022/11/22 03:55:31;;;;;;;;;1.00;1.00;;;;;6.41;79.37;98562.59;5075085;27;45967;-70
2022/11/22 03:57:56;;;;;;;;;2.00;2.00;;;;;6.41;78.79;98561.75;5075018;27;45271;-69
2022/11/22 04:00:22;;;;;;;;;1.00;1.00;;;;;6.42;78.95;98563.44;5075272;27;45620;-68
2022/11/22 04:02:48;;;;;;;;;1.00;1.00;;;;;6.43;79.15;98565.13;5073775;28;46117;-70
2022/11/22 04:05:13;;;;;;;;;1.75;1.75;;;;;6.39;78.99;98555.78;5073318;28;45645;-70
2022/11/22 04:07:38;;;;;;;;;1.00;1.00;;;;;6.44;78.82;98569.41;5075180;27;45377;-70
2022/11/22 04:10:05;;;;;;;;;0.25;0.25;;;;;6.45;79.07;98565.03;5075210;27;45573;-70
2022/11/22 04:12:30;;;;;;;;;2.00;2.00;;;;;6.45;79.26;98565.03;5074882;27;45369;-71
2022/11/22 04:15:08;;;;;;;;;1.00;1.00;;;;;6.41;79.07;98546.09;5074961;28;45538;-69
2022/11/22 04:17:39;;;;;;;;;2.75;2.50;;;;;6.47;79.23;98566.63;5075144;27;45259;-69
2022/11/22 04:23:01;;;;;;;;;0.00;0.00;;;;;6.49;79.85;98562.19;5074597;28;45271;-68
2022/11/22 04:25:28;;;;;;;;;2.00;1.25;;;;;6.50;79.80;98563.00;5074460;27;45271;-68
2022/11/22 04:27:54;;;;;;;;;0.75;0.75;;;;;6.52;79.54;98551.56;5074656;27;45239;-70
2022/11/22 04:30:19;;;;;;;;;2.00;2.00;;;;;6.55;80.02;98545.28;5073710;27;45521;-70
2022/11/22 04:32:45;;;;;;;;;3.00;3.00;;;;;6.57;79.45;98541.69;5074599;27;45211;-69
2022/11/22 04:35:13;;;;;;;;;1.00;1.00;;;;;6.58;79.04;98535.53;5074730;27;45195;-70
2022/11/22 04:37:38;;;;;;;;;1.00;1.00;;;;;6.61;79.58;98534.50;5074602;28;45418;-69
2022/11/22 04:40:04;;;;;;;;;1.00;1.00;;;;;6.64;79.93;98528.28;5074804;27;45319;-71
2022/11/22 04:45:13;;;;;;;;;1.00;1.00;;;;;6.70;78.95;98528.75;5074343;28;45504;-69
2022/11/22 04:53:06;;;;;;;;;0.75;0.75;;;;;6.75;78.93;98518.03;5073628;28;45644;-71
2022/11/22 04:55:32;;;;;;;;;1.00;1.00;;;;;6.80;79.47;98525.59;5072312;28;45489;-69
2022/11/22 04:57:57;;;;;;;;;1.75;1.75;;;;;6.82;79.28;98527.22;5074390;27;45421;-70
2022/11/22 05:00:22;;;;;;;;;1.75;1.75;;;;;6.81;79.39;98527.28;5074764;27;45637;-69
2022/11/22 05:02:48;;;;;;;;;2.00;2.00;;;;;6.85;78.87;98536.63;5074083;27;46165;-71
2022/11/22 05:05:13;;;;;;;;;1.00;1.00;;;;;6.85;79.25;98532.25;5072101;28;56747;-70
2022/11/22 05:07:38;;;;;;;;;2.00;2.00;;;;;6.89;79.17;98527.69;5074201;27;45422;-69
2022/11/22 05:10:04;;;;;;;;;1.00;1.00;;;;;6.88;78.80;98531.22;5074521;27;45592;-69
2022/11/22 05:12:29;;;;;;;;;1.00;1.00;;;;;6.91;78.85;98531.09;5073872;27;47955;-71
2022/11/22 05:14:55;;;;;;;;;0.00;0.00;;;;;6.91;79.21;98525.84;5074681;27;45314;-69
2022/11/22 05:17:20;;;;;;;;;1.00;1.00;;;;;6.93;78.39;98525.75;5074381;27;45289;-69
2022/11/22 05:19:45;;;;;;;;;1.00;1.00;;;;;6.95;78.51;98531.72;5074041;27;46087;-69
2022/11/22 05:22:11;;;;;;;;;1.00;1.00;;;;;6.97;78.46;98525.50;5073387;27;51905;-69
2022/11/22 05:24:36;;;;;;;;;2.00;2.00;;;;;6.96;79.11;98513.34;5073791;27;49939;-70
2022/11/22 05:27:01;;;;;;;;;1.50;1.50;;;;;6.97;78.49;98522.88;5073723;27;49092;-71
2022/11/22 05:29:26;;;;;;;;;1.75;1.75;;;;;6.95;78.54;98526.50;5074427;27;45331;-69
2022/11/22 05:31:52;;;;;;;;;2.00;2.00;;;;;6.98;78.77;98532.41;5074180;27;46706;-70
2022/11/22 05:34:17;;;;;;;;;2.00;2.00;;;;;6.99;78.84;98525.38;5073794;28;51770;-69
2022/11/22 05:36:42;;;;;;;;;1.00;1.00;;;;;7.03;78.99;98533.91;5073735;27;45493;-69
2022/11/22 05:39:08;;;;;;;;;1.00;1.00;;;;;7.00;79.73;98530.53;5073445;28;46955;-69
2022/11/22 05:41:33;;;;;;;;;0.00;0.00;;;;;7.00;80.97;98529.69;5074021;27;45797;-70
2022/11/22 05:43:59;;;;;;;;;0.00;0.00;;;;;6.99;80.65;98531.47;5077204;27;45436;-69
2022/11/22 05:46:29;;;;;;;;;1.00;1.00;;;;;7.00;80.00;98533.16;5077339;27;45286;-70
2022/11/22 05:48:56;;;;;;;;;0.00;0.00;;;;;6.98;80.69;98544.63;5077398;27;45315;-69
2022/11/22 05:51:23;;;;;;;;;1.25;1.25;;;;;6.94;82.02;98540.50;5076358;27;45883;-69
2022/11/22 05:53:49;;;;;;;;;1.00;1.00;;;;;6.94;81.78;98546.59;5076504;27;45414;-69
2022/11/22 05:56:20;;;;;;;;;1.50;1.50;;;;;6.89;81.81;98547.75;5077139;27;45339;-69
2022/11/22 05:58:45;;;;;;;;;0.25;0.25;;;;;6.89;82.28;98556.44;5075753;28;45539;-69
2022/11/22 06:01:23;;;;;;;;;1.00;1.00;;;;;6.86;82.36;98549.63;5075320;28;46565;-70
2022/11/22 06:03:49;;;;;;;;;1.00;1.00;;;;;6.87;81.99;98553.06;5077422;27;45211;-70
2022/11/22 06:06:15;;;;;;;;;0.00;0.00;;;;;6.85;82.17;98565.38;5077155;27;45204;-70
2022/11/22 06:08:44;;;;;;;;;1.00;1.00;;;;;6.81;82.40;98554.28;5077821;27;45165;-69
2022/11/22 06:11:21;;;;;;;;;1.00;1.00;;;;;6.83;82.63;98543.72;5076892;27;46133;-70
2022/11/22 06:13:49;;;;;;;;;0.25;0.25;;;;;6.83;82.60;98547.19;5076739;27;45416;-70
2022/11/22 06:16:15;;;;;;;;;1.00;1.00;;;;;6.83;83.16;98539.34;5076815;28;45260;-70
2022/11/22 06:18:40;;;;;;;;;2.00;2.00;;;;;6.84;83.74;98534.94;5077047;27;45224;-69
2022/11/22 06:21:10;;;;;;;;;1.00;1.00;;;;;6.84;83.92;98533.19;5076331;27;45350;-69
2022/11/22 06:23:35;;;;;;;;;1.00;1.00;;;;;6.87;83.91;98534.78;5076951;27;45446;-70
2022/11/22 06:26:03;;;;;;;;;1.00;1.00;;;;;6.90;84.14;98531.16;5077010;27;45329;-70
2022/11/22 06:28:30;;;;;;;;;1.00;1.00;;;;;6.94;83.19;98533.50;5077498;27;45490;-70
2022/11/22 06:31:03;;;;;;;;;0.75;0.75;;;;;6.95;82.64;98539.56;5076639;28;46387;-72
2022/11/22 06:33:28;;;;;;;;;1.75;1.75;;;;;6.96;83.67;98551.72;5076481;27;45237;-70
2022/11/22 06:35:54;;;;;;;;;1.75;1.75;;;;;6.96;83.12;98538.63;5076178;27;45479;-69
2022/11/22 06:38:19;;;;;;;;;1.00;1.00;;;;;7.01;84.33;98552.28;5076722;27;45175;-70
2022/11/22 06:40:44;;;;;;;;;1.50;1.50;;;;;7.07;83.94;98540.63;5076181;27;45969;-70
2022/11/22 06:43:10;;;;;;;;;1.25;1.25;;;;;7.07;84.26;98546.69;5076188;28;45223;-70
2022/11/22 06:45:35;;;;;;;;;0.75;0.75;;;;;7.07;83.29;98546.69;5076560;27;45738;-72
2022/11/22 06:48:01;;;;;;;;;0.50;0.50;;;;;7.11;82.93;98548.19;5076313;27;45295;-68
2022/11/22 06:50:26;;;;;;;;;1.00;1.00;;;;;7.09;82.78;98530.94;5075073;28;46538;-69
2022/11/22 06:52:52;;;;;;;;;3.00;3.00;;;;;7.13;83.17;98535.06;5075689;27;45510;-70
2022/11/22 06:55:17;;;;;;;;;2.00;2.00;;;;;7.13;83.41;98551.56;5075557;27;45478;-70
2022/11/22 06:57:42;;;;;;;;;2.00;2.00;;;;;7.20;82.81;98551.19;5076088;27;45311;-70
2022/11/22 07:00:08;;;;;;;;;1.00;1.00;;;;;7.18;82.62;98553.91;5075415;27;46716;-69
2022/11/22 07:02:34;;;;;;;;;1.00;1.00;;;;;7.26;82.23;98559.53;5075970;27;45896;-69
2022/11/22 07:04:59;;;;;;;;;2.00;2.00;;;;;7.25;82.69;98554.38;5076611;27;45339;-70
2022/11/22 07:07:24;;;;;;;;;1.25;1.25;;;;;7.30;82.54;98555.81;5075971;27;45313;-69
2022/11/22 07:09:50;;;;;;;;;1.50;1.50;;;;;7.35;81.91;98573.81;5075363;27;45561;-70
2022/11/22 07:12:15;;;;;;;;;1.00;1.00;;;;;7.30;81.20;98568.03;5075389;27;45318;-70
2022/11/22 07:14:40;;;;;;;;;1.00;1.00;;;;;7.33;81.13;98570.47;5075489;27;45426;-70
2022/11/22 07:17:06;;;;;;;;;1.00;1.00;;;;;7.37;81.10;98566.72;5075861;28;45319;-69
2022/11/22 07:19:32;;;;;;;;;1.00;1.00;;;;;7.37;81.80;98564.13;5074106;28;48318;-69
2022/11/22 07:21:57;;;;;;;;;2.75;2.75;;;;;7.41;81.65;98564.78;5075627;27;45291;-70
2022/11/22 07:24:22;;;;;;;;;1.00;1.00;;;;;7.33;81.18;98565.22;5075426;27;45283;-69
2022/11/22 07:26:48;;;;;;;;;1.00;1.00;;;;;7.37;81.28;98568.53;5075346;28;45167;-70
2022/11/22 07:29:13;;;;;;;;;2.00;2.00;;;;;7.42;81.44;98577.78;5075384;27;45427;-70
2022/11/22 07:31:38;;;;;;;;;1.75;1.75;;;;;7.43;80.92;98584.72;5075374;27;45327;-68
2022/11/22 07:34:04;;;;;;;;;2.25;2.25;;;;;7.42;80.69;98575.19;5075015;27;45311;-67
2022/11/22 07:36:29;;;;;;;;;1.00;1.00;;;;;7.43;80.88;98586.47;5075594;27;45476;-69
2022/11/22 07:38:55;;;;;;;;;7.50;7.50;;;;;7.40;80.87;98584.03;5074941;27;45992;-67
2022/11/22 07:41:21;;;;;;;;;3.00;2.25;;;;;7.48;80.84;98610.59;5075083;28;45234;-69
2022/11/22 07:43:46;;;;;;;;;2.50;2.50;;;;;7.48;80.40;98602.72;5073642;28;45326;-67
2022/11/22 07:46:25;;;;;;;;;1.00;1.00;;;;;7.51;80.80;98606.97;5074732;27;45423;-67
2022/11/22 07:48:50;;;;;;;;;0.75;0.75;;;;;7.51;81.49;98613.00;5093613;27;48067;-66
2022/11/22 07:51:16;;;;;;;;;1.00;1.00;;;;;7.47;80.85;98608.06;5087865;27;45386;-67
2022/11/22 07:53:41;;;;;;;;;1.00;1.00;;;;;7.41;81.04;98607.47;5095390;27;45320;-66
2022/11/22 07:56:07;;;;;;;;;0.00;0.00;;;;;7.37;80.75;98611.19;5087116;27;45420;-65
2022/11/22 07:58:33;;;;;;;;;2.00;2.00;;;;;7.36;81.38;98613.91;5073111;27;46928;-67
2022/11/22 08:01:11;;;;;;;;;0.00;0.00;;;;;7.35;80.94;98622.69;5053449;28;45385;-66
2022/11/22 08:03:37;;;;;;;;;1.00;1.00;;;;;7.31;81.20;98622.03;5054924;28;45213;-68
2022/11/22 08:06:04;;;;;;;;;0.50;0.50;;;;;7.33;81.13;98611.47;5057286;28;45541;-69
2022/11/22 08:08:30;;;;;;;;;0.50;0.50;;;;;7.28;82.29;98620.44;5055428;28;45357;-67
2022/11/22 08:10:56;;;;;;;;;2.25;2.25;;;;;7.28;83.25;98619.59;5065785;28;45585;-72
2022/11/22 08:13:22;;;;;;;;;1.00;1.00;;;;;7.25;83.88;98614.53;5073173;27;45367;-69
2022/11/22 08:15:48;;;;;;;;;1.00;1.00;;;;;7.23;84.45;98611.16;5068814;28;45392;-69
2022/11/22 08:18:14;;;;;;;;;0.00;0.00;;;;;7.22;84.53;98610.34;5057913;28;45508;-67
2022/11/22 08:20:39;;;;;;;;;2.50;2.50;;;;;7.18;84.18;98607.97;5074017;27;45252;-69
2022/11/22 08:23:04;;;;;;;;;1.00;1.00;;;;;7.31;83.41;98616.78;5074991;27;45322;-69
2022/11/22 08:25:29;;;;;;;;;1.50;1.50;;;;;7.30;83.87;98617.72;5074627;27;45273;-68
2022/11/22 08:27:55;;;;;;;;;1.00;1.00;;;;;7.32;83.49;98634.16;5074184;27;45516;-69
2022/11/22 08:30:20;;;;;;;;;3.75;3.75;;;;;7.34;83.68;98637.53;5074181;28;45430;-69
2022/11/22 08:32:46;;;;;;;;;3.00;3.00;;;;;7.25;83.21;98601.47;5074707;28;45299;-68
2022/11/22 08:35:11;;;;;;;;;1.00;1.00;;;;;7.40;84.07;98623.28;5074699;27;45337;-68
2022/11/22 08:37:36;;;;;;;;;3.50;3.50;;;;;7.45;83.40;98621.22;5074817;27;46456;-68
2022/11/22 08:40:02;;;;;;;;;2.25;1.75;;;;;7.44;84.54;98625.63;5074895;27;45448;-72
2022/11/22 08:42:28;;;;;;;;;2.00;2.00;;;;;7.54;83.92;98641.63;5074784;27;45437;-68
2022/11/22 08:44:53;;;;;;;;;3.00;3.00;;;;;7.57;84.36;98643.22;5074521;27;45613;-69
2022/11/22 08:47:18;;;;;;;;;15.00;14.50;;;;;7.55;84.36;98639.84;5074066;27;46425;-68
2022/11/22 08:49:44;;;;;;;;;12.75;12.75;;;;;7.56;83.79;98631.91;5074070;27;45475;-68
2022/11/22 08:52:09;;;;;;;;;7.25;7.00;;;;;7.62;83.91;98641.16;5074360;27;45341;-67
2022/11/22 08:54:34;;;;;;;;;7.25;7.25;;;;;7.63;83.59;98642.00;5073049;28;45465;-68
2022/11/22 08:57:00;;;;;;;;;7.00;7.00;;;;;7.65;83.85;98642.75;5073848;28;46823;-68
2022/11/22 08:59:25;;;;;;;;;4.00;4.00;;;;;7.68;83.56;98642.56;5073678;27;45333;-68
2022/11/22 09:01:50;;;;;;;;;2.00;2.00;;;;;7.69;83.75;98631.16;5074007;28;45337;-67
2022/11/22 09:04:16;;;;;;;;;1.25;1.25;;;;;7.79;83.04;98642.78;5074528;27;45312;-67
2022/11/22 09:06:41;;;;;;;;;3.25;3.25;;;;;7.85;83.22;98658.09;5073818;27;46549;-68
2022/11/22 09:09:06;;;;;;;;;7.00;7.00;;;;;7.88;82.75;98654.47;5074060;27;45389;-67
2022/11/22 09:11:32;;;;;;;;;4.25;4.25;;;;;7.98;82.76;98652.16;5073620;27;45307;-68
2022/11/22 09:13:57;;;;;;;;;4.25;4.25;;;;;8.02;82.09;98651.88;5073897;27;45695;-68
2022/11/22 09:16:22;;;;;;;;;3.25;3.25;;;;;8.05;82.11;98656.09;5074205;27;45394;-69
2022/11/22 09:18:48;;;;;;;;;3.00;3.00;;;;;8.10;81.42;98650.56;5077238;27;45193;-69
2022/11/22 09:21:18;;;;;;;;;3.00;3.00;;;;;8.09;81.89;98638.41;5077475;28;45370;-68
2022/11/22 09:23:44;;;;;;;;;0.00;0.00;;;;;8.19;81.79;98658.72;5077294;27;45376;-68
2022/11/22 09:26:17;;;;;;;;;6.00;5.00;;;;;8.28;81.05;98654.66;5076839;27;46275;-68
2022/11/22 09:28:43;;;;;;;;;1.75;1.75;;;;;8.39;80.73;98666.25;5077072;27;45405;-68
2022/11/22 09:31:19;;;;;;;;;5.00;5.00;;;;;8.44;80.14;98659.81;5077405;28;45854;-68
2022/11/22 09:33:45;;;;;;;;;7.00;6.75;;;;;8.53;80.37;98665.44;5077587;27;45460;-68
2022/11/22 09:36:17;;;;;;;;;2.75;2.75;;;;;8.59;80.19;98658.03;5077015;27;46227;-69
2022/11/22 09:38:42;;;;;;;;;2.25;2.25;;;;;8.69;79.19;98663.53;5076914;28;45364;-68
2022/11/22 09:41:29;;;;;;;;;3.00;3.00;;;;;8.74;78.71;98661.47;5077259;27;45299;-69
2022/11/22 09:43:57;;;;;;;;;3.75;3.75;;;;;8.79;78.40;98658.56;5077306;28;45361;-69
2022/11/22 09:46:25;;;;;;;;;3.00;2.75;;;;;8.83;78.13;98659.19;5076510;28;46623;-68
2022/11/22 09:48:56;;;;;;;;;1.25;1.25;;;;;8.88;77.41;98670.22;5076497;27;45269;-69
2022/11/22 09:51:28;;;;;;;;;3.75;3.25;;;;;8.88;77.41;98657.97;5076757;27;45291;-69
2022/11/22 09:54:06;;;;;;;;;8.00;5.25;;;;;8.95;77.05;98662.81;5076704;27;45352;-68
2022/11/22 09:56:33;;;;;;;;;5.25;5.25;;;;;9.01;77.19;98670.28;5076527;28;46214;-67
2022/11/22 09:59:12;;;;;;;;;4.50;4.50;;;;;9.02;76.21;98645.75;5075898;27;45223;-70
2022/11/22 10:01:51;;;;;;;;;2.50;2.50;;;;;9.08;76.02;98658.47;5076628;27;45283;-67
2022/11/22 10:04:21;;;;;;;;;5.50;5.50;;;;;9.13;75.92;98664.25;5076885;27;45354;-69
2022/11/22 10:06:57;;;;;;;;;1.25;1.25;;;;;9.16;75.78;98658.81;5076447;27;46257;-69
2022/11/22 10:09:28;;;;;;;;;5.00;2.00;;;;;9.20;75.67;98665.53;5076256;27;45425;-68
2022/11/22 10:11:59;;;;;;;;;3.00;3.00;;;;;9.25;75.69;98670.50;5076291;27;45342;-69
2022/11/22 10:14:47;;;;;;;;;2.50;2.50;;;;;9.32;75.13;98674.41;5076695;27;45397;-68
2022/11/22 10:17:21;;;;;;;;;3.00;3.00;;;;;9.39;75.75;98676.59;5074487;28;48410;-69
2022/11/22 10:19:52;;;;;;;;;2.00;2.00;;;;;9.45;75.16;98665.72;5076080;27;45409;-68
2022/11/22 10:22:18;;;;;;;;;4.75;4.75;;;;;9.46;74.84;98662.13;5075870;27;45817;-68
2022/11/22 10:24:47;;;;;;;;;2.00;2.00;;;;;9.52;74.39;98680.09;5076174;27;45582;-69
2022/11/22 10:27:14;;;;;;;;;4.00;3.00;;;;;9.56;74.52;98680.75;5075572;27;45434;-68
2022/11/22 10:29:49;;;;;;;;;5.00;5.00;;;;;9.61;74.30;98683.91;5076181;28;45263;-68
2022/11/22 10:32:39;;;;;;;;;3.00;3.00;;;;;9.67;74.31;98693.16;5075950;27;45247;-69
2022/11/22 10:35:10;;;;;;;;;3.00;3.00;;;;;9.72;73.82;98683.19;5076004;28;45377;-67
2022/11/22 10:37:53;;;;;;;;;5.00;5.00;;;;;9.77;73.33;98681.09;5075376;28;46465;-69
2022/11/22 10:40:41;;;;;;;;;3.00;3.00;;;;;9.84;73.67;98692.03;5075544;28;45219;-69
2022/11/22 10:43:22;;;;;;;;;3.75;3.25;;;;;9.91;72.70;98698.53;5091418;27;45489;-68
2022/11/22 10:46:06;;;;;;;;;3.25;3.00;;;;;9.97;72.29;98700.75;5076178;27;45412;-69
2022/11/22 10:48:31;;;;;;;;;8.00;8.00;;;;;10.02;72.59;98708.31;5075323;28;46221;-68
2022/11/22 10:51:25;;;;;;;;;6.50;6.50;;;;;10.01;71.83;98680.34;5075281;27;45505;-68
2022/11/22 10:53:53;;;;;;;;;3.00;3.00;;;;;10.05;71.10;98689.72;5075547;28;45491;-68
2022/11/22 10:56:38;;;;;;;;;3.50;3.50;;;;;9.99;71.09;98695.38;5075583;27;45528;-67
2022/11/22 10:59:29;;;;;;;;;2.50;2.50;;;;;10.05;70.68;98706.31;5075251;27;45760;-68
2022/11/22 11:02:29;;;;;;;;;3.75;3.00;;;;;10.05;70.70;98702.84;5090968;27;45680;-67
2022/11/22 11:04:56;;;;;;;;;3.50;3.50;;;;;9.94;70.25;98670.28;5075231;28;45171;-68
2022/11/22 11:07:24;;;;;;;;;3.00;3.00;;;;;10.03;69.92;98681.94;5075059;27;45166;-68
2022/11/22 11:09:57;;;;;;;;;3.00;3.00;;;;;10.14;70.33;98701.38;5075258;27;46346;-68
2022/11/22 11:12:44;;;;;;;;;4.00;4.00;;;;;10.20;69.57;98703.59;5074741;28;45299;-68
2022/11/22 11:15:21;;;;;;;;;3.00;3.00;;;;;10.25;68.85;98698.03;5075514;27;45399;-68
2022/11/22 11:17:53;;;;;;;;;3.00;3.00;;;;;10.27;68.80;98707.47;5075209;27;45321;-69
2022/11/22 11:20:26;;;;;;;;;2.00;2.00;;;;;10.31;67.92;98700.22;5075379;28;46328;-68
2022/11/22 11:22:51;;;;;;;;;4.50;4.00;;;;;10.31;68.43;98695.81;5090261;27;45555;-68
2022/11/22 11:25:33;;;;;;;;;3.00;3.00;;;;;10.37;68.70;98695.38;5075274;27;45497;-68
2022/11/22 11:28:04;;;;;;;;;4.50;4.50;;;;;10.44;68.48;98705.50;5075221;28;45434;-68
2022/11/22 11:30:37;;;;;;;;;5.75;5.75;;;;;10.50;68.47;98705.06;5074759;27;45542;-68
2022/11/22 11:33:17;;;;;;;;;8.25;8.25;;;;;10.56;68.01;98709.88;5074924;28;45421;-70
2022/11/22 11:35:43;;;;;;;;;4.00;4.00;;;;;10.54;67.59;98701.28;5075569;27;45286;-68
2022/11/22 11:38:54;;;;;;;;;7.00;7.00;;;;;10.50;67.89;98697.16;5075594;27;45608;-70
2022/11/22 11:41:31;;;;;;;;;7.00;7.00;;;;;10.52;67.92;98703.16;5012882;28;45546;-68
2022/11/22 11:43:59;;;;;;;;;3.00;3.00;;;;;10.50;67.56;98705.91;5013319;28;45449;-69
2022/11/22 11:46:26;;;;;;;;;6.00;5.00;;;;;10.46;67.05;98693.94;5059342;27;45365;-69
2022/11/22 11:48:54;;;;;;;;;3.00;3.00;;;;;10.46;66.82;98703.59;5075670;27;45594;-68
2022/11/22 11:51:35;;;;;;;;;4.00;4.00;;;;;10.42;66.93;98697.72;5075462;27;47702;-68
2022/11/22 11:54:08;;;;;;;;;3.75;3.00;;;;;10.44;66.92;98701.09;5075230;27;45299;-68
2022/11/22 11:56:43;;;;;;;;;3.00;3.00;;;;;10.55;67.00;98699.50;5075463;27;45228;-69